Time;durP1;ratioP1;P1;durP2;ratioP2;P2;SDS_P1;SDS_P2;PMS_P1;PMS_P2;Temp;Humidity;BMP_temperature;BMP_pressure;BME280_temperature;BME280_humidity;BME280_pressure;Samples;Min_cycle;Max_cycle;Signal;HPM_P1;HPM_P2
2021/10/24 00:00:19;;;;;;;63.80;36.20;;;;;;;2.59;100.00;100391.91;2072145;28;20721;-74
2021/10/24 00:01:21;;;;;;;63.78;36.03;;;;;;;2.60;100.00;100390.88;2071653;28;20740;-74
2021/10/24 00:02:25;;;;;;;64.85;35.28;;;;;;;2.65;100.00;100392.91;2071213;28;20228;-75
2021/10/24 00:03:26;;;;;;;67.90;35.72;;;;;;;2.59;100.00;100399.81;2065937;28;20286;-74
2021/10/24 00:04:28;;;;;;;58.80;34.07;;;;;;;2.60;100.00;100393.50;2070636;28;20286;-74
2021/10/24 00:05:29;;;;;;;60.28;34.85;;;;;;;2.60;100.00;100398.78;2080120;28;20230;-74
2021/10/24 00:06:32;;;;;;;62.47;34.85;;;;;;;2.62;100.00;100407.31;2080287;28;20239;-75
2021/10/24 00:07:33;;;;;;;62.63;34.92;;;;;;;2.61;100.00;100408.31;2080078;28;20253;-74
2021/10/24 00:08:38;;;;;;;67.30;36.88;;;;;;;2.62;100.00;100409.94;2080911;28;20219;-74
2021/10/24 00:09:40;;;;;;;65.13;36.33;;;;;;;2.58;100.00;100410.56;2071751;28;20236;-75
2021/10/24 00:10:43;;;;;;;63.33;36.33;;;;;;;2.56;100.00;100410.78;2072043;28;20228;-74
2021/10/24 00:11:47;;;;;;;66.25;35.85;;;;;;;2.57;100.00;100409.75;2072748;28;20239;-74
2021/10/24 00:12:50;;;;;;;64.38;36.05;;;;;;;2.53;100.00;100416.47;2080042;28;20219;-74
2021/10/24 00:13:53;;;;;;;60.03;35.03;;;;;;;2.53;100.00;100419.09;2079504;28;20318;-74
2021/10/24 00:14:56;;;;;;;61.60;35.88;;;;;;;2.51;100.00;100423.75;2072409;28;20708;-74
2021/10/24 00:15:59;;;;;;;62.15;35.22;;;;;;;2.50;100.00;100422.13;2072731;28;20310;-74
2021/10/24 00:17:02;;;;;;;59.67;34.20;;;;;;;2.51;100.00;100426.38;2071600;28;20695;-74
2021/10/24 00:18:03;;;;;;;58.03;33.85;;;;;;;2.54;100.00;100432.06;2071878;28;20231;-74
2021/10/24 00:19:05;;;;;;;61.63;35.55;;;;;;;2.54;100.00;100424.16;2072612;28;20223;-74
2021/10/24 00:20:07;;;;;;;58.95;35.03;;;;;;;2.55;100.00;100420.50;2071604;28;20228;-74
2021/10/24 00:21:11;;;;;;;63.13;35.50;;;;;;;2.55;100.00;100415.22;2073645;28;20240;-75
2021/10/24 00:22:14;;;;;;;60.40;34.78;;;;;;;2.56;100.00;100416.03;2080742;28;20293;-75
2021/10/24 00:23:16;;;;;;;66.38;35.22;;;;;;;2.54;100.00;100424.16;2080702;28;20215;-74
2021/10/24 00:24:21;;;;;;;59.08;33.88;;;;;;;2.58;100.00;100415.81;2079510;28;20224;-74
2021/10/24 00:25:22;;;;;;;64.60;34.78;;;;;;;2.57;100.00;100422.91;2063949;28;20311;-74
2021/10/24 00:26:26;;;;;;;59.70;35.97;;;;;;;2.57;100.00;100416.84;2071883;28;20232;-75
2021/10/24 00:27:29;;;;;;;59.50;33.92;;;;;;;2.59;100.00;100417.44;2071785;28;20528;-74
2021/10/24 00:28:32;;;;;;;55.13;33.92;;;;;;;2.57;100.00;100416.84;2071615;28;20227;-74
2021/10/24 00:29:36;;;;;;;66.47;33.90;;;;;;;2.58;100.00;100414.00;2071867;28;20308;-74
2021/10/24 00:30:39;;;;;;;59.80;33.45;;;;;;;2.60;100.00;100422.50;2087503;28;20630;-74
2021/10/24 00:31:42;;;;;;;62.30;33.40;;;;;;;2.62;100.00;100424.94;2080114;28;20238;-75
2021/10/24 00:32:44;;;;;;;60.13;33.72;;;;;;;2.64;100.00;100421.06;2080013;28;20227;-74
2021/10/24 00:33:47;;;;;;;64.97;33.58;;;;;;;2.66;100.00;100426.13;2072554;28;20657;-75
2021/10/24 00:34:49;;;;;;;60.03;34.05;;;;;;;2.67;100.00;100425.91;2071395;28;20254;-74
2021/10/24 00:35:51;;;;;;;62.83;34.05;;;;;;;2.70;100.00;100430.78;2071285;28;20216;-75
2021/10/24 00:36:52;;;;;;;61.80;33.83;;;;;;;2.73;100.00;100426.91;2071525;28;20228;-75
2021/10/24 00:37:57;;;;;;;65.40;34.17;;;;;;;2.80;100.00;100417.94;2072657;28;20617;-75
2021/10/24 00:39:01;;;;;;;58.97;34.45;;;;;;;2.82;100.00;100421.16;2071555;28;20224;-75
2021/10/24 00:40:08;;;;;;;56.20;33.95;;;;;;;2.86;100.00;100426.00;2064073;28;20267;-75
2021/10/24 00:41:11;;;;;;;56.17;34.28;;;;;;;2.89;100.00;100420.34;2071898;28;20333;-74
2021/10/24 00:42:12;;;;;;;63.13;34.55;;;;;;;2.91;100.00;100418.28;2071478;28;20243;-74
2021/10/24 00:43:15;;;;;;;73.60;35.25;;;;;;;2.94;100.00;100416.03;2079453;28;20229;-75
2021/10/24 00:44:20;;;;;;;65.63;34.42;;;;;;;2.99;100.00;100413.56;2071941;28;20653;-74
2021/10/24 00:45:25;;;;;;;56.13;33.13;;;;;;;3.02;100.00;100420.22;2071799;28;20220;-74
2021/10/24 00:46:27;;;;;;;69.47;35.50;;;;;;;3.06;100.00;100418.81;2078945;28;27868;-74
2021/10/24 00:47:30;;;;;;;66.63;33.92;;;;;;;3.07;100.00;100417.78;2071097;28;20220;-75
2021/10/24 00:48:32;;;;;;;58.47;32.90;;;;;;;3.08;100.00;100422.03;2063819;28;20224;-74
2021/10/24 00:49:36;;;;;;;67.57;35.20;;;;;;;3.07;100.00;100420.41;2071757;28;20223;-74
2021/10/24 00:50:39;;;;;;;53.38;33.35;;;;;;;3.10;100.00;100422.63;2075469;28;20258;-74
2021/10/24 00:51:41;;;;;;;61.13;34.13;;;;;;;3.07;100.00;100417.78;2064562;28;20228;-74
2021/10/24 00:52:45;;;;;;;63.22;35.38;;;;;;;3.08;100.00;100422.03;2071303;28;20236;-74
2021/10/24 00:53:47;;;;;;;57.13;33.92;;;;;;;3.16;100.00;100420.97;2071605;28;20226;-74
2021/10/24 00:54:49;;;;;;;56.60;34.13;;;;;;;3.15;100.00;100419.34;2063566;28;20220;-74
2021/10/24 00:55:54;;;;;;;63.15;34.72;;;;;;;3.16;100.00;100416.50;2071670;28;20224;-74
2021/10/24 00:56:56;;;;;;;56.92;33.03;;;;;;;3.19;100.00;100408.16;2070421;28;20302;-74
2021/10/24 00:58:00;;;;;;;66.88;34.33;;;;;;;3.20;100.00;100416.88;2071467;28;20668;-74
2021/10/24 00:59:01;;;;;;;58.90;34.60;;;;;;;3.19;100.00;100415.25;2071625;28;20275;-74
2021/10/24 01:00:08;;;;;;;61.78;33.80;;;;;;;3.20;100.00;100416.88;2071114;28;20251;-74
2021/10/24 01:01:09;;;;;;;64.85;35.08;;;;;;;3.22;100.00;100406.94;2071314;28;20231;-74
2021/10/24 01:02:12;;;;;;;68.53;35.05;;;;;;;3.22;100.00;100405.09;2071105;28;20370;-74
2021/10/24 01:03:14;;;;;;;64.32;33.55;;;;;;;3.23;100.00;100398.81;2071033;28;20242;-74
2021/10/24 01:04:16;;;;;;;65.97;34.83;;;;;;;3.25;100.00;100409.94;2071482;28;20299;-74
2021/10/24 01:05:18;;;;;;;67.00;34.72;;;;;;;3.26;100.00;100401.00;2071092;28;20236;-74
2021/10/24 01:06:21;;;;;;;61.10;33.85;;;;;;;3.26;100.00;100408.13;2071587;28;20664;-75
2021/10/24 01:07:23;;;;;;;75.30;34.42;;;;;;;3.25;100.00;100411.78;2072968;28;20669;-74
2021/10/24 01:08:25;;;;;;;63.95;33.95;;;;;;;3.27;100.00;100409.72;2071498;28;20220;-75
2021/10/24 01:09:32;;;;;;;59.03;33.10;;;;;;;3.29;100.00;100418.22;2079571;28;20223;-74
2021/10/24 01:10:36;;;;;;;57.90;32.05;;;;;;;3.30;100.00;100415.41;2071037;28;20710;-74
2021/10/24 01:11:45;;;;;;;56.92;33.35;;;;;;;3.33;100.00;100414.94;2071609;28;20220;-74
2021/10/24 01:12:50;;;;;;;60.03;34.40;;;;;;;3.33;100.00;100412.31;2071495;28;20296;-74
2021/10/24 01:13:53;;;;;;;62.13;34.25;;;;;;;3.33;100.00;100417.59;2071361;28;20239;-74
2021/10/24 01:14:56;;;;;;;50.47;32.35;;;;;;;3.34;100.00;100421.03;2087477;28;20237;-74
2021/10/24 01:16:10;;;;;;;60.65;34.47;;;;;;;3.35;100.00;100420.81;2087579;28;20604;-74
2021/10/24 01:17:13;;;;;;;57.53;33.22;;;;;;;3.37;100.00;100426.69;2087422;28;20583;-74
2021/10/24 01:18:16;;;;;;;68.20;33.28;;;;;;;3.40;100.00;100430.75;2072745;28;20244;-74
2021/10/24 01:19:18;;;;;;;50.25;32.30;;;;;;;3.42;100.00;100425.25;2071802;28;20231;-74
2021/10/24 01:20:23;;;;;;;61.17;33.75;;;;;;;3.44;100.00;100425.81;2071330;28;20302;-75
2021/10/24 01:21:29;;;;;;;56.67;31.85;;;;;;;3.46;100.00;100427.22;2079110;28;20231;-74
2021/10/24 01:22:39;;;;;;;56.42;32.40;;;;;;;3.45;100.00;100424.81;2079211;28;20698;-75
2021/10/24 01:23:42;;;;;;;60.85;31.98;;;;;;;3.46;100.00;100415.84;2079132;28;20223;-74
2021/10/24 01:24:45;;;;;;;50.83;31.20;;;;;;;3.46;100.00;100421.94;2079615;28;20219;-74
2021/10/24 01:25:48;;;;;;;61.95;32.30;;;;;;;3.46;100.00;100421.94;2079406;28;20620;-73
2021/10/24 01:26:50;;;;;;;56.45;32.03;;;;;;;3.48;100.00;100430.47;2071053;28;20294;-74
2021/10/24 01:27:53;;;;;;;59.55;33.25;;;;;;;3.48;100.00;100425.19;2070852;28;20228;-73
2021/10/24 01:28:54;;;;;;;63.85;32.70;;;;;;;3.47;100.00;100420.91;2072732;28;20316;-73
2021/10/24 01:29:57;;;;;;;54.45;31.75;;;;;;;3.50;100.00;100430.25;2079617;28;20697;-74
2021/10/24 01:30:58;;;;;;;55.20;31.55;;;;;;;3.54;100.00;100428.78;2079637;28;20223;-73
2021/10/24 01:32:02;;;;;;;52.28;32.65;;;;;;;3.53;100.00;100424.53;2063441;28;20753;-74
2021/10/24 01:33:04;;;;;;;55.42;33.22;;;;;;;3.54;100.00;100423.50;2063446;28;20247;-73
2021/10/24 01:34:07;;;;;;;55.80;33.03;;;;;;;3.53;100.00;100424.53;2071309;28;20220;-73
2021/10/24 01:35:11;;;;;;;56.13;32.10;;;;;;;3.54;100.00;100413.75;2071441;28;20671;-73
2021/10/24 01:36:15;;;;;;;60.65;34.25;;;;;;;3.56;100.00;100421.44;2079407;28;20302;-74
2021/10/24 01:37:18;;;;;;;58.72;32.70;;;;;;;3.56;100.00;100432.00;2079454;28;20218;-74
2021/10/24 01:38:22;;;;;;;58.00;33.42;;;;;;;3.54;100.00;100424.31;2079492;28;20223;-74
2021/10/24 01:39:23;;;;;;;61.67;33.13;;;;;;;3.52;100.00;100425.56;2071013;28;20228;-73
2021/10/24 01:40:26;;;;;;;59.17;32.70;;;;;;;3.54;100.00;100424.31;2070868;28;20230;-74
2021/10/24 01:41:28;;;;;;;51.35;32.75;;;;;;;3.54;100.00;100431.41;2071367;28;20236;-74
2021/10/24 01:42:32;;;;;;;55.60;31.75;;;;;;;3.53;100.00;100427.16;2055520;28;20692;-73
2021/10/24 01:43:37;;;;;;;52.50;33.05;;;;;;;3.52;100.00;100430.84;2055335;28;20233;-74
2021/10/24 01:44:39;;;;;;;56.80;32.72;;;;;;;3.56;100.00;100432.00;2062986;28;20229;-74
2021/10/24 01:45:42;;;;;;;58.55;33.72;;;;;;;3.52;100.00;100433.47;2063349;28;20228;-74
2021/10/24 01:46:51;;;;;;;58.58;33.72;;;;;;;3.54;100.00;100439.34;2062073;28;20290;-73
2021/10/24 01:47:56;;;;;;;64.93;32.42;;;;;;;3.52;100.00;100436.13;2056674;28;20229;-74
2021/10/24 01:48:57;;;;;;;56.80;32.95;;;;;;;3.53;100.00;100435.09;2055051;28;20630;-74
2021/10/24 01:49:59;;;;;;;56.05;32.78;;;;;;;3.50;100.00;100448.72;2064919;28;20220;-74
2021/10/24 01:51:02;;;;;;;55.70;31.70;;;;;;;3.52;100.00;100444.03;2064880;28;20227;-74
2021/10/24 01:52:04;;;;;;;52.80;32.00;;;;;;;3.52;100.00;100444.84;2065032;28;20299;-74
2021/10/24 01:53:09;;;;;;;55.10;32.38;;;;;;;3.55;100.00;100440.94;2064783;28;20244;-73
2021/10/24 01:54:11;;;;;;;51.15;31.67;;;;;;;3.54;100.00;100439.34;2064441;28;20629;-74
2021/10/24 01:55:14;;;;;;;65.88;33.72;;;;;;;3.53;100.00;100443.00;2064661;28;20232;-73
2021/10/24 01:56:15;;;;;;;54.95;33.42;;;;;;;3.53;100.00;100441.16;2057042;28;20256;-74
2021/10/24 01:57:17;;;;;;;59.08;33.05;;;;;;;3.51;100.00;100439.78;2064861;28;20584;-74
2021/10/24 01:58:19;;;;;;;60.63;32.13;;;;;;;3.52;100.00;100438.75;2064918;28;20573;-73
2021/10/24 01:59:22;;;;;;;53.33;32.85;;;;;;;3.50;100.00;100433.69;2072980;28;20220;-73
2021/10/24 02:00:59;;;;;;;52.53;32.22;;;;;;;3.42;100.00;100435.78;2065522;28;20672;-74
2021/10/24 02:02:21;;;;;;;53.28;33.22;;;;;;;3.46;100.00;100432.50;2065246;28;20228;-74
2021/10/24 02:04:02;;;;;;;61.80;34.97;;;;;;;3.43;100.00;100445.31;2063785;28;20281;-73
2021/10/24 02:05:13;;;;;;;63.88;34.80;;;;;;;3.37;100.00;100441.69;2063324;28;20676;-73
2021/10/24 02:06:15;;;;;;;57.08;34.17;;;;;;;3.38;100.00;100440.66;2056705;28;20229;-73
2021/10/24 02:07:17;;;;;;;60.50;33.28;;;;;;;3.40;100.00;100444.72;2056850;28;20221;-73
2021/10/24 02:08:21;;;;;;;64.50;33.85;;;;;;;3.42;100.00;100443.72;2064810;28;20227;-73
2021/10/24 02:09:23;;;;;;;63.10;34.70;;;;;;;3.43;100.00;100437.41;2065139;28;20238;-74
2021/10/24 02:10:27;;;;;;;63.97;34.92;;;;;;;3.42;100.00;100439.25;2072651;28;20228;-73
2021/10/24 02:11:29;;;;;;;53.28;32.90;;;;;;;3.42;100.00;100438.44;2072874;28;20265;-74
2021/10/24 02:12:33;;;;;;;63.60;34.35;;;;;;;3.37;100.00;100439.88;2064394;28;20581;-73
2021/10/24 02:13:41;;;;;;;65.10;34.78;;;;;;;3.36;100.00;100442.72;2056324;28;20619;-73
2021/10/24 02:14:43;;;;;;;57.15;33.53;;;;;;;3.38;100.00;100443.31;2063505;28;20232;-73
2021/10/24 02:15:46;;;;;;;62.50;35.47;;;;;;;3.37;100.00;100439.88;2072909;28;20244;-73
2021/10/24 02:16:47;;;;;;;62.55;34.53;;;;;;;3.39;100.00;100447.59;2073153;28;20231;-73
2021/10/24 02:17:50;;;;;;;61.08;34.55;;;;;;;3.39;100.00;100443.13;2064761;28;20303;-73
2021/10/24 02:18:57;;;;;;;70.60;33.65;;;;;;;3.38;100.00;100430.94;2056524;28;21218;-73
2021/10/24 02:19:59;;;;;;;58.30;33.08;;;;;;;3.39;100.00;100443.13;2048901;28;20701;-74
2021/10/24 02:21:04;;;;;;;57.85;33.33;;;;;;;3.38;100.00;100446.75;2064888;28;20356;-74
2021/10/24 02:22:06;;;;;;;58.55;33.13;;;;;;;3.39;100.00;100437.03;2072703;28;20228;-73
2021/10/24 02:23:08;;;;;;;63.63;33.10;;;;;;;3.40;100.00;100439.47;2064340;28;20233;-73
2021/10/24 02:24:12;;;;;;;66.88;35.65;;;;;;;3.38;100.00;100441.47;2056664;28;20608;-74
2021/10/24 02:25:14;;;;;;;57.83;34.10;;;;;;;3.35;100.00;100447.19;2064801;28;20227;-73
2021/10/24 02:26:19;;;;;;;65.22;34.22;;;;;;;3.33;100.00;100436.06;2064686;28;20232;-74
2021/10/24 02:27:22;;;;;;;65.88;34.25;;;;;;;3.32;100.00;100445.00;2056860;28;20567;-73
2021/10/24 02:28:24;;;;;;;65.05;34.08;;;;;;;3.35;100.00;100451.66;2056545;28;20221;-73
2021/10/24 02:29:26;;;;;;;60.88;33.17;;;;;;;3.35;100.00;100449.03;2064401;28;20745;-73
2021/10/24 02:30:30;;;;;;;62.10;34.17;;;;;;;3.34;100.00;100444.78;2064527;28;20225;-73
2021/10/24 02:31:38;;;;;;;63.47;34.08;;;;;;;3.31;100.00;100451.28;2063515;28;20240;-73
2021/10/24 02:33:14;;;;;;;60.85;33.72;;;;;;;3.26;100.00;100440.56;2062687;28;20584;-73
2021/10/24 02:34:42;;;;;;;60.72;33.97;;;;;;;3.26;100.00;100447.66;2068061;28;20259;-73
2021/10/24 02:36:11;;;;;;;60.65;34.08;;;;;;;3.24;100.00;100447.88;2062623;28;20298;-73
2021/10/24 02:37:13;;;;;;;64.05;34.17;;;;;;;3.24;100.00;100445.25;2064465;28;20319;-73
2021/10/24 02:38:15;;;;;;;61.40;33.72;;;;;;;3.20;100.00;100451.97;2064657;28;20225;-73
2021/10/24 02:39:17;;;;;;;64.15;34.28;;;;;;;3.18;100.00;100446.09;2064602;28;20635;-73
2021/10/24 02:40:20;;;;;;;61.03;32.53;;;;;;;3.20;100.00;100444.03;2064570;28;20221;-73
2021/10/24 02:41:25;;;;;;;65.30;34.28;;;;;;;3.18;100.00;100451.38;2064723;28;20745;-73
2021/10/24 02:42:33;;;;;;;60.75;33.38;;;;;;;3.16;100.00;100455.25;2080571;28;20219;-73
2021/10/24 02:43:35;;;;;;;52.45;34.30;;;;;;;3.16;100.00;100448.16;2066840;28;20247;-73
2021/10/24 02:44:37;;;;;;;52.63;34.10;;;;;;;3.16;100.00;100452.63;2063910;28;20236;-73
2021/10/24 02:45:39;;;;;;;60.28;34.72;;;;;;;3.17;100.00;100452.41;2071739;28;20223;-73
2021/10/24 02:46:41;;;;;;;61.08;32.55;;;;;;;3.14;100.00;100454.66;2071976;28;20251;-73
2021/10/24 02:47:45;;;;;;;55.30;33.20;;;;;;;3.14;100.00;100459.94;2071587;28;20224;-73
2021/10/24 02:48:48;;;;;;;60.38;33.22;;;;;;;3.18;100.00;100464.56;2072242;28;20230;-74
2021/10/24 02:49:50;;;;;;;57.28;34.30;;;;;;;3.14;100.00;100463.38;2076114;28;20281;-74
2021/10/24 02:50:52;;;;;;;58.10;32.70;;;;;;;3.12;100.00;100463.56;2074014;28;20234;-73
2021/10/24 02:51:54;;;;;;;54.97;34.00;;;;;;;3.15;100.00;100464.19;2073550;28;20236;-73
2021/10/24 02:52:56;;;;;;;64.75;33.47;;;;;;;3.13;100.00;100459.13;2079731;28;20686;-74
2021/10/24 02:53:58;;;;;;;56.28;32.45;;;;;;;3.13;100.00;100464.41;2072031;28;20560;-74
2021/10/24 02:55:03;;;;;;;48.35;32.28;;;;;;;3.10;100.00;100459.53;2064375;28;20265;-73
2021/10/24 02:56:05;;;;;;;58.63;32.88;;;;;;;3.10;100.00;100452.44;2072566;28;20220;-73
2021/10/24 02:57:08;;;;;;;66.43;34.25;;;;;;;3.14;100.00;100454.66;2066018;28;20224;-73
2021/10/24 02:58:09;;;;;;;62.40;32.30;;;;;;;3.12;100.00;100457.50;2063660;28;20228;-73
2021/10/24 02:59:14;;;;;;;56.28;33.65;;;;;;;3.09;100.00;100458.72;2071505;28;20239;-73
2021/10/24 03:00:15;;;;;;;53.88;33.78;;;;;;;3.17;100.00;100465.59;2072061;28;20636;-74
2021/10/24 03:01:18;;;;;;;62.67;34.28;;;;;;;3.14;100.00;100466.00;2071311;28;20224;-73
2021/10/24 03:02:19;;;;;;;59.63;32.13;;;;;;;3.20;100.00;100470.41;2072027;28;20224;-73
2021/10/24 03:03:22;;;;;;;56.78;33.08;;;;;;;3.19;100.00;100462.72;2080557;28;20224;-73
2021/10/24 03:04:23;;;;;;;61.05;32.67;;;;;;;3.18;100.00;100466.38;2088058;28;20227;-73
2021/10/24 03:05:26;;;;;;;62.72;32.22;;;;;;;3.12;100.00;100462.75;2080169;28;20721;-73
2021/10/24 03:06:27;;;;;;;55.25;32.17;;;;;;;3.14;100.00;100458.09;2072180;28;20370;-73
2021/10/24 03:07:32;;;;;;;64.22;34.83;;;;;;;3.11;100.00;100461.94;2072281;28;20661;-73
2021/10/24 03:08:33;;;;;;;57.22;32.03;;;;;;;3.10;100.00;100467.44;2080617;28;20242;-73
2021/10/24 03:09:37;;;;;;;62.65;33.05;;;;;;;3.08;100.00;100472.94;2088158;28;20222;-73
2021/10/24 03:10:44;;;;;;;57.55;33.42;;;;;;;3.10;100.00;100470.09;2079757;28;20220;-73
2021/10/24 03:11:45;;;;;;;55.15;32.33;;;;;;;3.06;100.00;100474.16;2072253;28;20326;-73
2021/10/24 03:12:49;;;;;;;56.08;33.45;;;;;;;3.06;100.00;100466.25;2072272;28;20390;-74
2021/10/24 03:13:51;;;;;;;54.05;31.85;;;;;;;3.05;100.00;100465.47;2072380;28;20231;-73
2021/10/24 03:14:56;;;;;;;54.17;33.45;;;;;;;3.06;100.00;100471.53;2078431;28;20249;-73
2021/10/24 03:16:00;;;;;;;57.42;33.60;;;;;;;3.05;100.00;100467.28;2080477;28;20230;-73
2021/10/24 03:17:05;;;;;;;55.78;31.92;;;;;;;3.02;100.00;100470.31;2072471;28;20274;-73
2021/10/24 03:18:13;;;;;;;62.20;32.60;;;;;;;2.98;100.00;100466.50;2072436;28;20235;-74
2021/10/24 03:19:15;;;;;;;59.78;34.72;;;;;;;2.94;100.00;100475.84;2078873;28;20634;-73
2021/10/24 03:20:24;;;;;;;60.88;33.20;;;;;;;2.87;100.00;100462.72;2068621;28;20728;-73
2021/10/24 03:21:25;;;;;;;56.05;33.20;;;;;;;2.80;100.00;100473.28;2071937;28;20690;-73
2021/10/24 03:22:30;;;;;;;63.92;33.50;;;;;;;2.79;100.00;100478.78;2071640;28;20698;-73
2021/10/24 03:23:36;;;;;;;63.83;33.13;;;;;;;2.75;100.00;100486.28;2064793;28;20228;-73
2021/10/24 03:24:39;;;;;;;57.00;32.88;;;;;;;2.73;100.00;100488.31;2062971;28;20699;-73
2021/10/24 03:25:44;;;;;;;54.40;32.35;;;;;;;2.72;100.00;100485.91;2071973;28;20220;-73
2021/10/24 03:26:45;;;;;;;58.75;32.63;;;;;;;2.69;100.00;100484.47;2071461;28;20724;-73
2021/10/24 03:27:48;;;;;;;59.55;33.38;;;;;;;2.67;100.00;100486.50;2072108;28;20224;-73
2021/10/24 03:28:52;;;;;;;58.30;31.85;;;;;;;2.63;100.00;100487.97;2071799;28;20238;-73
2021/10/24 03:29:57;;;;;;;54.05;33.58;;;;;;;2.59;100.00;100497.28;2063466;28;20228;-73
2021/10/24 03:31:00;;;;;;;52.88;33.20;;;;;;;2.53;100.00;100490.22;2068651;28;20232;-73
2021/10/24 03:32:05;;;;;;;58.63;33.15;;;;;;;2.52;100.00;100491.25;2079396;28;20321;-74
2021/10/24 03:33:07;;;;;;;62.47;33.28;;;;;;;2.52;100.00;100499.97;2079488;28;20298;-74
2021/10/24 03:34:11;;;;;;;61.65;32.95;;;;;;;2.49;100.00;100483.75;2071881;28;20226;-73
2021/10/24 03:35:14;;;;;;;61.22;33.05;;;;;;;2.51;100.00;100487.78;2065086;28;20225;-73
2021/10/24 03:36:19;;;;;;;56.45;33.25;;;;;;;2.53;100.00;100490.22;2064345;28;20221;-73
2021/10/24 03:37:23;;;;;;;57.63;33.60;;;;;;;2.52;100.00;100494.69;2071067;28;20298;-73
2021/10/24 03:38:27;;;;;;;60.78;34.35;;;;;;;2.50;100.00;100501.16;2072133;28;20596;-73
2021/10/24 03:39:31;;;;;;;71.00;35.30;;;;;;;2.50;100.00;100495.88;2079416;28;20243;-73
2021/10/24 03:40:37;;;;;;;66.80;34.50;;;;;;;2.49;100.00;100497.72;2064432;28;20707;-73
2021/10/24 03:41:43;;;;;;;63.92;34.97;;;;;;;2.49;100.00;100492.44;2020858;28;1237893;-74
2021/10/24 03:42:48;;;;;;;63.60;35.33;;;;;;;2.49;100.00;100494.28;2064729;28;20311;-73
2021/10/24 03:43:50;;;;;;;59.70;33.58;;;;;;;2.50;100.00;100493.25;2064314;28;20221;-73
2021/10/24 03:44:53;;;;;;;56.30;34.88;;;;;;;2.51;100.00;100492.25;2066136;28;20228;-73
2021/10/24 03:45:56;;;;;;;63.28;34.28;;;;;;;2.47;100.00;100496.31;2073632;28;20248;-73
2021/10/24 03:47:01;;;;;;;60.85;35.03;;;;;;;2.51;100.00;100502.78;2072129;28;20228;-73
2021/10/24 03:48:04;;;;;;;57.53;34.05;;;;;;;2.50;100.00;100503.78;2071375;28;20224;-73
2021/10/24 03:49:16;;;;;;;57.33;35.10;;;;;;;2.49;100.00;100515.34;2073043;28;20228;-73
2021/10/24 03:50:20;;;;;;;61.53;34.55;;;;;;;2.48;100.00;100513.72;2080171;28;20606;-73
2021/10/24 03:51:22;;;;;;;58.55;33.75;;;;;;;2.48;100.00;100511.09;2080236;28;20273;-73
2021/10/24 03:52:24;;;;;;;53.70;34.03;;;;;;;2.45;100.00;100501.00;2080113;28;20236;-74
2021/10/24 03:53:29;;;;;;;62.42;34.88;;;;;;;2.44;100.00;100509.91;2080470;28;20235;-74
2021/10/24 03:54:34;;;;;;;60.38;33.38;;;;;;;2.43;100.00;100505.63;2072289;28;20278;-73
2021/10/24 03:55:37;;;;;;;56.92;34.97;;;;;;;2.42;100.00;100499.56;2080403;28;20302;-74
2021/10/24 03:56:40;;;;;;;56.13;34.28;;;;;;;2.40;100.00;100506.88;2079717;28;20277;-73
2021/10/24 03:57:43;;;;;;;59.13;34.08;;;;;;;2.39;100.00;100502.63;2072373;28;20236;-73
2021/10/24 03:58:46;;;;;;;63.42;35.67;;;;;;;2.38;100.00;100506.28;2076174;28;20244;-73
2021/10/24 03:59:51;;;;;;;63.97;35.00;;;;;;;2.36;100.00;100497.78;2080447;28;20250;-73
2021/10/24 04:00:54;;;;;;;62.10;34.78;;;;;;;2.36;100.00;100507.50;2087457;28;20230;-73
2021/10/24 04:02:00;;;;;;;65.55;35.13;;;;;;;2.36;100.00;100510.13;2071943;28;20227;-73
2021/10/24 04:03:05;;;;;;;61.33;35.40;;;;;;;2.37;100.00;100506.47;2064159;28;20823;-74
2021/10/24 04:04:18;;;;;;;65.22;34.88;;;;;;;2.37;100.00;100512.56;2079255;28;20226;-73
2021/10/24 04:05:21;;;;;;;61.42;35.58;;;;;;;2.35;100.00;100508.53;2072348;28;20236;-73
2021/10/24 04:06:24;;;;;;;62.92;34.80;;;;;;;2.34;100.00;100512.13;2079817;28;20223;-74
2021/10/24 04:07:25;;;;;;;63.03;34.33;;;;;;;2.34;100.00;100512.13;2072178;28;20285;-74
2021/10/24 04:08:29;;;;;;;65.53;34.88;;;;;;;2.32;100.00;100511.53;2064242;28;20229;-74
2021/10/24 04:09:30;;;;;;;55.72;34.42;;;;;;;2.28;100.00;100507.72;2063358;28;20601;-74
2021/10/24 04:10:32;;;;;;;59.15;35.03;;;;;;;2.26;100.00;100510.56;2071903;28;20224;-74
2021/10/24 04:11:34;;;;;;;57.17;33.88;;;;;;;2.23;100.00;100510.94;2064049;28;20220;-74
2021/10/24 04:12:38;;;;;;;61.53;35.08;;;;;;;2.21;100.00;100508.53;2072438;28;20228;-74
2021/10/24 04:13:43;;;;;;;59.08;33.47;;;;;;;2.20;100.00;100501.66;2080028;28;20232;-74
2021/10/24 04:14:48;;;;;;;71.93;35.55;;;;;;;2.18;100.00;100497.59;2072674;28;20683;-74
2021/10/24 04:15:53;;;;;;;55.83;33.75;;;;;;;2.16;100.00;100503.06;2072076;28;20228;-74
2021/10/24 04:17:20;;;;;;;58.10;35.15;;;;;;;2.10;100.00;100509.16;2071820;28;20223;-74
2021/10/24 04:18:24;;;;;;;54.53;33.78;;;;;;;2.08;100.00;100507.72;2071515;28;20224;-74
2021/10/24 04:19:27;;;;;;;60.30;33.88;;;;;;;2.03;100.00;100505.72;2071818;28;20278;-74
2021/10/24 04:20:32;;;;;;;59.75;34.00;;;;;;;2.00;100.00;100503.50;2064300;28;20664;-74
2021/10/24 04:21:34;;;;;;;59.28;32.47;;;;;;;1.97;100.00;100503.91;2072257;28;20224;-74
2021/10/24 04:22:36;;;;;;;66.35;35.10;;;;;;;1.91;100.00;100499.44;2079995;28;20219;-74
2021/10/24 04:23:40;;;;;;;56.47;33.45;;;;;;;1.90;100.00;100508.34;2074164;28;20684;-74
2021/10/24 04:24:41;;;;;;;64.30;35.08;;;;;;;1.87;100.00;100512.22;2071294;28;20224;-74
2021/10/24 04:25:45;;;;;;;62.78;35.03;;;;;;;1.84;100.00;100510.00;2071735;28;20224;-74
2021/10/24 04:26:46;;;;;;;55.72;34.97;;;;;;;1.81;100.00;100509.56;2071394;28;20671;-74
2021/10/24 04:27:50;;;;;;;62.90;36.20;;;;;;;1.79;100.00;100509.78;2071527;28;20224;-74
2021/10/24 04:28:53;;;;;;;56.55;35.35;;;;;;;1.77;100.00;100526.78;2071942;28;20231;-74
2021/10/24 04:29:55;;;;;;;58.80;35.28;;;;;;;1.76;100.00;100520.72;2081231;28;20231;-74
2021/10/24 04:30:57;;;;;;;69.07;36.05;;;;;;;1.75;100.00;100526.19;2071838;28;20346;-74
2021/10/24 04:32:01;;;;;;;60.28;34.75;;;;;;;1.74;100.00;100529.81;2063748;28;20667;-74
2021/10/24 04:33:02;;;;;;;57.70;34.75;;;;;;;1.70;100.00;100532.03;2063921;28;20221;-74
2021/10/24 04:34:09;;;;;;;65.20;34.95;;;;;;;1.70;100.00;100539.94;2063933;28;20224;-74
2021/10/24 04:35:12;;;;;;;58.75;35.15;;;;;;;1.70;100.00;100542.56;2063390;28;20270;-74
2021/10/24 04:36:16;;;;;;;58.50;36.22;;;;;;;1.69;100.00;100541.75;2072372;28;20290;-74
2021/10/24 04:37:22;;;;;;;60.85;34.80;;;;;;;1.68;100.00;100539.31;2079484;28;20329;-74
2021/10/24 04:38:25;;;;;;;61.15;35.10;;;;;;;1.65;100.00;100540.56;2079335;28;20710;-74
2021/10/24 04:39:31;;;;;;;63.85;36.05;;;;;;;1.73;100.00;100544.78;2071593;28;20224;-74
2021/10/24 04:40:33;;;;;;;57.25;36.55;;;;;;;1.74;100.00;100549.06;2063571;28;20229;-74
2021/10/24 04:41:41;;;;;;;59.53;35.53;;;;;;;1.76;100.00;100546.22;2067429;28;20225;-74
2021/10/24 04:42:43;;;;;;;61.90;35.25;;;;;;;1.78;100.00;100546.81;2080004;28;20598;-74
2021/10/24 04:43:48;;;;;;;61.58;36.15;;;;;;;1.82;100.00;100540.13;2079806;28;20223;-74
2021/10/24 04:44:55;;;;;;;63.88;36.35;;;;;;;1.88;100.00;100542.78;2075298;28;20231;-74
2021/10/24 04:45:58;;;;;;;68.35;36.22;;;;;;;1.93;100.00;100545.63;2078165;28;20242;-73
2021/10/24 04:47:01;;;;;;;65.03;37.35;;;;;;;1.97;100.00;100543.38;2087705;28;20279;-73
2021/10/24 04:48:02;;;;;;;60.08;37.33;;;;;;;2.02;100.00;100550.69;2079702;28;20314;-73
2021/10/24 04:49:12;;;;;;;67.13;38.10;;;;;;;2.05;100.00;100551.06;2078337;28;20721;-73
2021/10/24 04:50:14;;;;;;;64.72;37.22;;;;;;;2.04;100.00;100548.66;2063625;28;20221;-73
2021/10/24 04:51:16;;;;;;;64.00;37.83;;;;;;;2.06;100.00;100557.94;2064017;28;20304;-73